sensor_id;sensor_type;location;lat;lon;timestamp;P1;durP1;ratioP1;P2;durP2;ratioP2
24381;SDS011;12502;50.678;7.172;2022-10-17T00:03:11;11.32;;;5.38;;
24381;SDS011;12502;50.678;7.172;2022-10-17T00:08:13;8.93;;;4.80;;
24381;SDS011;12502;50.678;7.172;2022-10-17T00:13:16;8.45;;;4.80;;
24381;SDS011;12502;50.678;7.172;2022-10-17T00:18:18;4.93;;;4.40;;
24381;SDS011;12502;50.678;7.172;2022-10-17T00:23:19;8.10;;;4.75;;
24381;SDS011;12502;50.678;7.172;2022-10-17T00:28:21;8.02;;;4.80;;
24381;SDS011;12502;50.678;7.172;2022-10-17T00:33:23;8.45;;;4.13;;
24381;SDS011;12502;50.678;7.172;2022-10-17T00:38:25;8.85;;;4.85;;
24381;SDS011;12502;50.678;7.172;2022-10-17T00:43:27;7.40;;;4.47;;
24381;SDS011;12502;50.678;7.172;2022-10-17T00:48:29;9.27;;;4.50;;
24381;SDS011;12502;50.678;7.172;2022-10-17T00:53:31;11.68;;;5.03;;
24381;SDS011;12502;50.678;7.172;2022-10-17T00:58:34;12.95;;;4.65;;
24381;SDS011;12502;50.678;7.172;2022-10-17T01:03:36;13.73;;;6.15;;
24381;SDS011;12502;50.678;7.172;2022-10-17T01:08:38;8.02;;;4.93;;
24381;SDS011;12502;50.678;7.172;2022-10-17T01:19:50;7.10;;;4.82;;
24381;SDS011;12502;50.678;7.172;2022-10-17T01:31:15;8.32;;;5.22;;
24381;SDS011;12502;50.678;7.172;2022-10-17T01:42:14;10.02;;;4.72;;
24381;SDS011;12502;50.678;7.172;2022-10-17T01:47:31;6.45;;;5.22;;
24381;SDS011;12502;50.678;7.172;2022-10-17T01:52:37;9.98;;;5.30;;
24381;SDS011;12502;50.678;7.172;2022-10-17T01:57:47;10.30;;;5.22;;
24381;SDS011;12502;50.678;7.172;2022-10-17T02:02:59;6.82;;;4.70;;
24381;SDS011;12502;50.678;7.172;2022-10-17T02:08:05;13.57;;;5.13;;
24381;SDS011;12502;50.678;7.172;2022-10-17T02:18:47;5.32;;;4.82;;
24381;SDS011;12502;50.678;7.172;2022-10-17T02:29:15;12.38;;;5.38;;
24381;SDS011;12502;50.678;7.172;2022-10-17T02:34:20;6.20;;;4.80;;
24381;SDS011;12502;50.678;7.172;2022-10-17T02:39:32;6.28;;;5.20;;
24381;SDS011;12502;50.678;7.172;2022-10-17T02:44:37;11.45;;;5.82;;
24381;SDS011;12502;50.678;7.172;2022-10-17T02:49:45;7.20;;;4.70;;
24381;SDS011;12502;50.678;7.172;2022-10-17T02:54:53;9.63;;;4.72;;
24381;SDS011;12502;50.678;7.172;2022-10-17T03:05:31;7.68;;;5.00;;
24381;SDS011;12502;50.678;7.172;2022-10-17T03:10:33;5.95;;;5.07;;
24381;SDS011;12502;50.678;7.172;2022-10-17T03:15:34;6.97;;;4.63;;
24381;SDS011;12502;50.678;7.172;2022-10-17T03:20:43;10.32;;;5.00;;
24381;SDS011;12502;50.678;7.172;2022-10-17T03:25:46;9.85;;;4.85;;
24381;SDS011;12502;50.678;7.172;2022-10-17T03:30:53;5.57;;;4.53;;
24381;SDS011;12502;50.678;7.172;2022-10-17T03:35:56;12.27;;;4.53;;
24381;SDS011;12502;50.678;7.172;2022-10-17T03:40:58;6.60;;;4.50;;
24381;SDS011;12502;50.678;7.172;2022-10-17T03:45:59;5.10;;;4.22;;
24381;SDS011;12502;50.678;7.172;2022-10-17T03:51:03;6.53;;;4.72;;
24381;SDS011;12502;50.678;7.172;2022-10-17T03:56:25;7.25;;;4.57;;
24381;SDS011;12502;50.678;7.172;2022-10-17T04:01:27;6.13;;;4.75;;
24381;SDS011;12502;50.678;7.172;2022-10-17T04:06:29;6.32;;;4.45;;
24381;SDS011;12502;50.678;7.172;2022-10-17T04:11:31;5.22;;;4.60;;
24381;SDS011;12502;50.678;7.172;2022-10-17T04:16:33;7.60;;;4.65;;
24381;SDS011;12502;50.678;7.172;2022-10-17T04:21:35;6.63;;;4.40;;
24381;SDS011;12502;50.678;7.172;2022-10-17T04:26:36;10.25;;;5.22;;
24381;SDS011;12502;50.678;7.172;2022-10-17T04:31:38;6.85;;;4.80;;
24381;SDS011;12502;50.678;7.172;2022-10-17T04:36:40;13.75;;;5.10;;
24381;SDS011;12502;50.678;7.172;2022-10-17T04:41:43;5.10;;;4.50;;
24381;SDS011;12502;50.678;7.172;2022-10-17T04:46:45;8.38;;;4.95;;
24381;SDS011;12502;50.678;7.172;2022-10-17T04:51:47;7.57;;;4.95;;
24381;SDS011;12502;50.678;7.172;2022-10-17T04:56:49;6.45;;;4.95;;
24381;SDS011;12502;50.678;7.172;2022-10-17T05:01:50;7.97;;;5.00;;
24381;SDS011;12502;50.678;7.172;2022-10-17T05:06:52;8.07;;;5.13;;
24381;SDS011;12502;50.678;7.172;2022-10-17T05:11:54;9.48;;;4.80;;
24381;SDS011;12502;50.678;7.172;2022-10-17T05:16:56;11.45;;;5.68;;
24381;SDS011;12502;50.678;7.172;2022-10-17T05:21:57;10.07;;;5.32;;
24381;SDS011;12502;50.678;7.172;2022-10-17T05:32:29;9.98;;;4.88;;
24381;SDS011;12502;50.678;7.172;2022-10-17T05:37:31;6.22;;;4.90;;
24381;SDS011;12502;50.678;7.172;2022-10-17T05:42:33;10.60;;;5.00;;
24381;SDS011;12502;50.678;7.172;2022-10-17T05:47:35;12.45;;;4.97;;
24381;SDS011;12502;50.678;7.172;2022-10-17T05:52:37;12.75;;;4.95;;
24381;SDS011;12502;50.678;7.172;2022-10-17T05:57:38;7.63;;;5.00;;
24381;SDS011;12502;50.678;7.172;2022-10-17T06:02:40;8.38;;;5.80;;
24381;SDS011;12502;50.678;7.172;2022-10-17T06:07:43;11.50;;;5.30;;
24381;SDS011;12502;50.678;7.172;2022-10-17T06:12:45;8.40;;;5.07;;
24381;SDS011;12502;50.678;7.172;2022-10-17T06:17:46;11.43;;;5.35;;
24381;SDS011;12502;50.678;7.172;2022-10-17T06:22:48;7.68;;;5.35;;
24381;SDS011;12502;50.678;7.172;2022-10-17T06:27:50;6.10;;;4.75;;
24381;SDS011;12502;50.678;7.172;2022-10-17T06:32:56;8.55;;;4.75;;
24381;SDS011;12502;50.678;7.172;2022-10-17T06:37:58;8.55;;;5.38;;
24381;SDS011;12502;50.678;7.172;2022-10-17T06:43:00;8.63;;;4.75;;
24381;SDS011;12502;50.678;7.172;2022-10-17T06:48:01;10.35;;;5.78;;
24381;SDS011;12502;50.678;7.172;2022-10-17T06:53:03;12.82;;;5.10;;
24381;SDS011;12502;50.678;7.172;2022-10-17T06:58:05;12.45;;;5.47;;
24381;SDS011;12502;50.678;7.172;2022-10-17T07:03:07;10.32;;;5.10;;
24381;SDS011;12502;50.678;7.172;2022-10-17T07:08:08;9.45;;;5.35;;
24381;SDS011;12502;50.678;7.172;2022-10-17T07:13:11;8.90;;;4.70;;
24381;SDS011;12502;50.678;7.172;2022-10-17T07:18:13;14.38;;;5.60;;
24381;SDS011;12502;50.678;7.172;2022-10-17T07:23:15;8.80;;;5.05;;
24381;SDS011;12502;50.678;7.172;2022-10-17T07:28:17;6.95;;;4.35;;
24381;SDS011;12502;50.678;7.172;2022-10-17T07:33:19;9.65;;;5.60;;
24381;SDS011;12502;50.678;7.172;2022-10-17T07:38:21;8.52;;;4.90;;
24381;SDS011;12502;50.678;7.172;2022-10-17T07:43:23;11.00;;;4.88;;
24381;SDS011;12502;50.678;7.172;2022-10-17T07:48:25;7.03;;;4.38;;
24381;SDS011;12502;50.678;7.172;2022-10-17T07:53:27;9.20;;;4.35;;
24381;SDS011;12502;50.678;7.172;2022-10-17T07:58:29;8.27;;;4.80;;
24381;SDS011;12502;50.678;7.172;2022-10-17T08:03:31;9.90;;;4.80;;
24381;SDS011;12502;50.678;7.172;2022-10-17T08:08:33;12.80;;;5.30;;
24381;SDS011;12502;50.678;7.172;2022-10-17T08:13:35;10.50;;;4.40;;
24381;SDS011;12502;50.678;7.172;2022-10-17T08:18:39;6.53;;;4.35;;
24381;SDS011;12502;50.678;7.172;2022-10-17T08:23:43;10.98;;;4.70;;
24381;SDS011;12502;50.678;7.172;2022-10-17T08:28:44;15.52;;;4.55;;
24381;SDS011;12502;50.678;7.172;2022-10-17T08:33:48;8.27;;;4.35;;
24381;SDS011;12502;50.678;7.172;2022-10-17T08:38:50;11.45;;;4.63;;
24381;SDS011;12502;50.678;7.172;2022-10-17T08:49:38;7.90;;;4.22;;
24381;SDS011;12502;50.678;7.172;2022-10-17T08:54:40;7.95;;;4.13;;
24381;SDS011;12502;50.678;7.172;2022-10-17T08:59:48;7.25;;;4.00;;
24381;SDS011;12502;50.678;7.172;2022-10-17T09:20:46;11.45;;;4.28;;
24381;SDS011;12502;50.678;7.172;2022-10-17T09:25:53;18.27;;;4.47;;
24381;SDS011;12502;50.678;7.172;2022-10-17T09:31:08;7.35;;;4.47;;
24381;SDS011;12502;50.678;7.172;2022-10-17T09:36:21;5.30;;;4.22;;
24381;SDS011;12502;50.678;7.172;2022-10-17T09:41:42;5.85;;;3.85;;
24381;SDS011;12502;50.678;7.172;2022-10-17T09:51:53;12.00;;;4.20;;
24381;SDS011;12502;50.678;7.172;2022-10-17T09:56:56;5.15;;;3.97;;
24381;SDS011;12502;50.678;7.172;2022-10-17T10:07:12;8.55;;;4.22;;
24381;SDS011;12502;50.678;7.172;2022-10-17T10:12:24;8.18;;;4.30;;
24381;SDS011;12502;50.678;7.172;2022-10-17T10:22:38;10.48;;;3.80;;
24381;SDS011;12502;50.678;7.172;2022-10-17T10:27:41;5.50;;;3.60;;
24381;SDS011;12502;50.678;7.172;2022-10-17T10:32:44;7.43;;;4.18;;
24381;SDS011;12502;50.678;7.172;2022-10-17T10:37:50;4.82;;;3.40;;
24381;SDS011;12502;50.678;7.172;2022-10-17T10:42:57;5.32;;;3.70;;
24381;SDS011;12502;50.678;7.172;2022-10-17T11:04:20;5.07;;;2.88;;
24381;SDS011;12502;50.678;7.172;2022-10-17T11:09:36;8.35;;;3.65;;
24381;SDS011;12502;50.678;7.172;2022-10-17T11:15:17;8.18;;;3.42;;
24381;SDS011;12502;50.678;7.172;2022-10-17T11:25:43;6.00;;;3.65;;
24381;SDS011;12502;50.678;7.172;2022-10-17T11:36:26;9.50;;;3.72;;
24381;SDS011;12502;50.678;7.172;2022-10-17T11:41:35;25.10;;;4.38;;
24381;SDS011;12502;50.678;7.172;2022-10-17T11:46:42;7.15;;;3.70;;
24381;SDS011;12502;50.678;7.172;2022-10-17T11:51:51;14.65;;;4.03;;
24381;SDS011;12502;50.678;7.172;2022-10-17T12:02:51;26.10;;;5.07;;
24381;SDS011;12502;50.678;7.172;2022-10-17T12:07:58;6.85;;;3.75;;
24381;SDS011;12502;50.678;7.172;2022-10-17T12:18:33;12.30;;;4.07;;
24381;SDS011;12502;50.678;7.172;2022-10-17T12:23:34;9.60;;;3.85;;
24381;SDS011;12502;50.678;7.172;2022-10-17T12:28:57;6.38;;;3.90;;
24381;SDS011;12502;50.678;7.172;2022-10-17T12:33:59;7.30;;;3.75;;
24381;SDS011;12502;50.678;7.172;2022-10-17T12:54:38;6.20;;;3.60;;
24381;SDS011;12502;50.678;7.172;2022-10-17T13:00:01;5.43;;;3.97;;
24381;SDS011;12502;50.678;7.172;2022-10-17T13:10:28;7.25;;;3.58;;
24381;SDS011;12502;50.678;7.172;2022-10-17T13:15:33;8.90;;;4.05;;
24381;SDS011;12502;50.678;7.172;2022-10-17T13:20:37;9.13;;;4.00;;
24381;SDS011;12502;50.678;7.172;2022-10-17T13:25:38;15.15;;;4.07;;
24381;SDS011;12502;50.678;7.172;2022-10-17T13:30:44;10.18;;;3.90;;
24381;SDS011;12502;50.678;7.172;2022-10-17T13:35:49;11.80;;;3.80;;
24381;SDS011;12502;50.678;7.172;2022-10-17T13:41:09;9.85;;;4.10;;
24381;SDS011;12502;50.678;7.172;2022-10-17T13:46:33;10.40;;;3.30;;
24381;SDS011;12502;50.678;7.172;2022-10-17T13:51:43;9.35;;;3.55;;
24381;SDS011;12502;50.678;7.172;2022-10-17T13:56:54;4.90;;;3.03;;
24381;SDS011;12502;50.678;7.172;2022-10-17T14:01:57;10.75;;;3.65;;
24381;SDS011;12502;50.678;7.172;2022-10-17T14:12:10;5.40;;;3.08;;
24381;SDS011;12502;50.678;7.172;2022-10-17T14:17:34;5.63;;;2.95;;
24381;SDS011;12502;50.678;7.172;2022-10-17T14:22:35;6.95;;;3.25;;
24381;SDS011;12502;50.678;7.172;2022-10-17T14:27:50;6.85;;;3.42;;
24381;SDS011;12502;50.678;7.172;2022-10-17T14:33:04;9.25;;;3.53;;
24381;SDS011;12502;50.678;7.172;2022-10-17T14:38:11;23.52;;;15.48;;
24381;SDS011;12502;50.678;7.172;2022-10-17T14:43:18;13.02;;;8.57;;
24381;SDS011;12502;50.678;7.172;2022-10-17T14:48:22;12.68;;;3.92;;
24381;SDS011;12502;50.678;7.172;2022-10-17T14:53:26;8.55;;;3.70;;
24381;SDS011;12502;50.678;7.172;2022-10-17T14:58:33;9.05;;;3.70;;
24381;SDS011;12502;50.678;7.172;2022-10-17T15:03:34;8.55;;;4.25;;
24381;SDS011;12502;50.678;7.172;2022-10-17T15:08:36;9.60;;;3.80;;
24381;SDS011;12502;50.678;7.172;2022-10-17T15:13:38;7.95;;;3.00;;
24381;SDS011;12502;50.678;7.172;2022-10-17T15:18:46;12.65;;;3.90;;
24381;SDS011;12502;50.678;7.172;2022-10-17T15:23:48;9.50;;;3.47;;
24381;SDS011;12502;50.678;7.172;2022-10-17T15:28:52;7.63;;;3.47;;
24381;SDS011;12502;50.678;7.172;2022-10-17T15:33:54;9.43;;;4.00;;
24381;SDS011;12502;50.678;7.172;2022-10-17T15:38:56;6.18;;;3.00;;
24381;SDS011;12502;50.678;7.172;2022-10-17T15:43:59;14.38;;;3.80;;
24381;SDS011;12502;50.678;7.172;2022-10-17T15:49:05;9.25;;;3.42;;
24381;SDS011;12502;50.678;7.172;2022-10-17T15:54:10;5.93;;;3.50;;
24381;SDS011;12502;50.678;7.172;2022-10-17T15:59:13;7.70;;;3.42;;
24381;SDS011;12502;50.678;7.172;2022-10-17T16:04:18;6.90;;;3.33;;
24381;SDS011;12502;50.678;7.172;2022-10-17T16:09:20;10.27;;;3.97;;
24381;SDS011;12502;50.678;7.172;2022-10-17T16:14:21;8.05;;;3.67;;
24381;SDS011;12502;50.678;7.172;2022-10-17T16:19:24;8.77;;;4.20;;
24381;SDS011;12502;50.678;7.172;2022-10-17T16:24:29;7.50;;;3.38;;
24381;SDS011;12502;50.678;7.172;2022-10-17T16:29:31;6.78;;;3.40;;
24381;SDS011;12502;50.678;7.172;2022-10-17T16:34:33;7.95;;;3.35;;
24381;SDS011;12502;50.678;7.172;2022-10-17T16:39:35;9.20;;;3.20;;
24381;SDS011;12502;50.678;7.172;2022-10-17T16:44:37;6.63;;;3.30;;
24381;SDS011;12502;50.678;7.172;2022-10-17T16:49:39;6.97;;;3.40;;
24381;SDS011;12502;50.678;7.172;2022-10-17T16:54:45;7.15;;;2.85;;
24381;SDS011;12502;50.678;7.172;2022-10-17T16:59:47;10.68;;;3.50;;
24381;SDS011;12502;50.678;7.172;2022-10-17T17:04:48;9.85;;;3.40;;
24381;SDS011;12502;50.678;7.172;2022-10-17T17:10:05;10.73;;;4.30;;
24381;SDS011;12502;50.678;7.172;2022-10-17T17:15:12;12.43;;;5.03;;
24381;SDS011;12502;50.678;7.172;2022-10-17T17:20:14;7.53;;;4.40;;
24381;SDS011;12502;50.678;7.172;2022-10-17T17:25:18;10.18;;;4.90;;
24381;SDS011;12502;50.678;7.172;2022-10-17T17:30:20;9.52;;;5.38;;
24381;SDS011;12502;50.678;7.172;2022-10-17T17:40:48;11.13;;;5.07;;
24381;SDS011;12502;50.678;7.172;2022-10-17T17:45:51;10.32;;;5.45;;
24381;SDS011;12502;50.678;7.172;2022-10-17T17:50:56;13.32;;;5.93;;
24381;SDS011;12502;50.678;7.172;2022-10-17T17:56:14;14.23;;;5.57;;
24381;SDS011;12502;50.678;7.172;2022-10-17T18:06:26;14.80;;;6.20;;
24381;SDS011;12502;50.678;7.172;2022-10-17T18:11:28;15.18;;;6.82;;
24381;SDS011;12502;50.678;7.172;2022-10-17T18:16:31;15.30;;;6.78;;
24381;SDS011;12502;50.678;7.172;2022-10-17T18:21:35;14.47;;;6.07;;
24381;SDS011;12502;50.678;7.172;2022-10-17T18:32:20;15.95;;;5.47;;
24381;SDS011;12502;50.678;7.172;2022-10-17T18:37:22;13.45;;;6.63;;
24381;SDS011;12502;50.678;7.172;2022-10-17T18:42:24;15.10;;;5.65;;
24381;SDS011;12502;50.678;7.172;2022-10-17T18:47:25;11.10;;;5.82;;
24381;SDS011;12502;50.678;7.172;2022-10-17T18:52:29;10.60;;;5.93;;
24381;SDS011;12502;50.678;7.172;2022-10-17T18:57:31;15.20;;;6.18;;
24381;SDS011;12502;50.678;7.172;2022-10-17T19:02:34;12.32;;;6.47;;
24381;SDS011;12502;50.678;7.172;2022-10-17T19:07:38;13.40;;;5.97;;
24381;SDS011;12502;50.678;7.172;2022-10-17T19:12:40;15.15;;;6.10;;
24381;SDS011;12502;50.678;7.172;2022-10-17T19:17:41;8.65;;;5.78;;
24381;SDS011;12502;50.678;7.172;2022-10-17T19:22:43;9.73;;;6.20;;
24381;SDS011;12502;50.678;7.172;2022-10-17T19:27:45;12.27;;;6.15;;
24381;SDS011;12502;50.678;7.172;2022-10-17T19:32:46;10.05;;;6.28;;
24381;SDS011;12502;50.678;7.172;2022-10-17T19:37:48;12.15;;;6.70;;
24381;SDS011;12502;50.678;7.172;2022-10-17T19:42:50;11.63;;;6.78;;
24381;SDS011;12502;50.678;7.172;2022-10-17T19:47:52;11.63;;;6.55;;
24381;SDS011;12502;50.678;7.172;2022-10-17T19:52:54;15.57;;;7.28;;
24381;SDS011;12502;50.678;7.172;2022-10-17T19:57:55;10.82;;;7.00;;
24381;SDS011;12502;50.678;7.172;2022-10-17T20:02:59;9.95;;;6.85;;
24381;SDS011;12502;50.678;7.172;2022-10-17T20:08:02;12.77;;;7.35;;
24381;SDS011;12502;50.678;7.172;2022-10-17T20:13:04;11.05;;;7.20;;
24381;SDS011;12502;50.678;7.172;2022-10-17T20:18:06;20.50;;;8.63;;
24381;SDS011;12502;50.678;7.172;2022-10-17T20:23:09;10.65;;;7.80;;
24381;SDS011;12502;50.678;7.172;2022-10-17T20:28:10;11.90;;;8.23;;
24381;SDS011;12502;50.678;7.172;2022-10-17T20:33:12;16.88;;;9.18;;
24381;SDS011;12502;50.678;7.172;2022-10-17T20:38:15;19.00;;;9.93;;
24381;SDS011;12502;50.678;7.172;2022-10-17T20:43:17;16.17;;;8.98;;
24381;SDS011;12502;50.678;7.172;2022-10-17T20:48:19;11.27;;;8.82;;
24381;SDS011;12502;50.678;7.172;2022-10-17T20:53:21;26.63;;;9.80;;
24381;SDS011;12502;50.678;7.172;2022-10-17T20:58:37;16.05;;;9.77;;
24381;SDS011;12502;50.678;7.172;2022-10-17T21:03:39;14.65;;;9.43;;
24381;SDS011;12502;50.678;7.172;2022-10-17T21:08:47;15.10;;;10.43;;
24381;SDS011;12502;50.678;7.172;2022-10-17T21:13:56;15.63;;;9.90;;
24381;SDS011;12502;50.678;7.172;2022-10-17T21:19:00;16.88;;;11.38;;
24381;SDS011;12502;50.678;7.172;2022-10-17T21:24:05;13.10;;;10.38;;
24381;SDS011;12502;50.678;7.172;2022-10-17T21:29:10;14.57;;;10.40;;
24381;SDS011;12502;50.678;7.172;2022-10-17T21:34:15;13.30;;;9.83;;
24381;SDS011;12502;50.678;7.172;2022-10-17T21:39:19;15.82;;;9.30;;
24381;SDS011;12502;50.678;7.172;2022-10-17T21:44:23;14.93;;;9.77;;
24381;SDS011;12502;50.678;7.172;2022-10-17T21:49:25;16.53;;;8.53;;
24381;SDS011;12502;50.678;7.172;2022-10-17T21:54:27;11.82;;;7.70;;
24381;SDS011;12502;50.678;7.172;2022-10-17T21:59:29;16.60;;;7.82;;
24381;SDS011;12502;50.678;7.172;2022-10-17T22:04:47;13.68;;;7.43;;
24381;SDS011;12502;50.678;7.172;2022-10-17T22:09:48;14.30;;;8.18;;
24381;SDS011;12502;50.678;7.172;2022-10-17T22:14:50;15.73;;;9.20;;
24381;SDS011;12502;50.678;7.172;2022-10-17T22:19:52;16.30;;;8.85;;
24381;SDS011;12502;50.678;7.172;2022-10-17T22:24:53;15.57;;;10.45;;
24381;SDS011;12502;50.678;7.172;2022-10-17T22:29:55;19.40;;;10.48;;
24381;SDS011;12502;50.678;7.172;2022-10-17T22:34:57;15.00;;;8.90;;
24381;SDS011;12502;50.678;7.172;2022-10-17T22:39:59;15.35;;;9.25;;
24381;SDS011;12502;50.678;7.172;2022-10-17T22:45:02;16.48;;;10.15;;
24381;SDS011;12502;50.678;7.172;2022-10-17T22:50:04;13.55;;;10.07;;
24381;SDS011;12502;50.678;7.172;2022-10-17T22:55:06;16.60;;;11.40;;
24381;SDS011;12502;50.678;7.172;2022-10-17T23:00:11;16.07;;;10.03;;
24381;SDS011;12502;50.678;7.172;2022-10-17T23:05:13;16.77;;;10.17;;
24381;SDS011;12502;50.678;7.172;2022-10-17T23:10:21;15.52;;;10.10;;
24381;SDS011;12502;50.678;7.172;2022-10-17T23:15:24;14.48;;;8.70;;
24381;SDS011;12502;50.678;7.172;2022-10-17T23:20:26;16.88;;;10.38;;
24381;SDS011;12502;50.678;7.172;2022-10-17T23:25:29;16.50;;;10.77;;
24381;SDS011;12502;50.678;7.172;2022-10-17T23:30:33;16.10;;;12.33;;
24381;SDS011;12502;50.678;7.172;2022-10-17T23:35:35;15.20;;;10.65;;
24381;SDS011;12502;50.678;7.172;2022-10-17T23:40:37;15.73;;;11.45;;
24381;SDS011;12502;50.678;7.172;2022-10-17T23:45:39;19.25;;;13.00;;
24381;SDS011;12502;50.678;7.172;2022-10-17T23:50:40;21.70;;;13.73;;
24381;SDS011;12502;50.678;7.172;2022-10-17T23:55:43;17.25;;;13.07;;
